sensor_id;sensor_type;location;lat;lon;timestamp;P1;durP1;ratioP1;P2;durP2;ratioP2
59040;SDS011;44825;53.200;6.448;2024-03-06T00:02:08;18.13;;;7.93;;
59040;SDS011;44825;53.200;6.448;2024-03-06T00:04:34;14.65;;;7.15;;
59040;SDS011;44825;53.200;6.448;2024-03-06T00:07:00;11.95;;;7.35;;
59040;SDS011;44825;53.200;6.448;2024-03-06T00:09:27;13.48;;;6.93;;
59040;SDS011;44825;53.200;6.448;2024-03-06T00:11:53;14.32;;;7.75;;
59040;SDS011;44825;53.200;6.448;2024-03-06T00:14:19;14.27;;;7.43;;
59040;SDS011;44825;53.200;6.448;2024-03-06T00:16:49;15.20;;;6.95;;
59040;SDS011;44825;53.200;6.448;2024-03-06T00:19:16;12.00;;;6.80;;
59040;SDS011;44825;53.200;6.448;2024-03-06T00:21:42;13.27;;;7.90;;
59040;SDS011;44825;53.200;6.448;2024-03-06T00:24:08;14.02;;;6.70;;
59040;SDS011;44825;53.200;6.448;2024-03-06T00:26:34;15.13;;;7.45;;
59040;SDS011;44825;53.200;6.448;2024-03-06T00:29:00;18.95;;;9.05;;
59040;SDS011;44825;53.200;6.448;2024-03-06T00:31:26;15.00;;;7.07;;
59040;SDS011;44825;53.200;6.448;2024-03-06T00:33:52;11.88;;;7.03;;
59040;SDS011;44825;53.200;6.448;2024-03-06T00:36:18;15.00;;;7.78;;
59040;SDS011;44825;53.200;6.448;2024-03-06T00:38:44;13.65;;;7.25;;
59040;SDS011;44825;53.200;6.448;2024-03-06T00:41:10;15.93;;;7.20;;
59040;SDS011;44825;53.200;6.448;2024-03-06T00:43:36;12.52;;;7.20;;
59040;SDS011;44825;53.200;6.448;2024-03-06T00:46:02;15.95;;;7.78;;
59040;SDS011;44825;53.200;6.448;2024-03-06T00:48:28;12.73;;;6.80;;
59040;SDS011;44825;53.200;6.448;2024-03-06T00:50:54;19.05;;;7.97;;
59040;SDS011;44825;53.200;6.448;2024-03-06T00:53:20;13.18;;;7.35;;
59040;SDS011;44825;53.200;6.448;2024-03-06T00:55:47;14.82;;;7.18;;
59040;SDS011;44825;53.200;6.448;2024-03-06T00:58:13;16.77;;;8.25;;
59040;SDS011;44825;53.200;6.448;2024-03-06T01:00:39;13.95;;;7.53;;
59040;SDS011;44825;53.200;6.448;2024-03-06T01:03:05;15.20;;;7.40;;
59040;SDS011;44825;53.200;6.448;2024-03-06T01:05:31;11.63;;;7.07;;
59040;SDS011;44825;53.200;6.448;2024-03-06T01:07:57;17.65;;;8.00;;
59040;SDS011;44825;53.200;6.448;2024-03-06T01:10:24;15.32;;;7.13;;
59040;SDS011;44825;53.200;6.448;2024-03-06T01:12:50;17.40;;;7.53;;
59040;SDS011;44825;53.200;6.448;2024-03-06T01:15:16;18.17;;;7.10;;
59040;SDS011;44825;53.200;6.448;2024-03-06T01:17:43;18.05;;;9.43;;
59040;SDS011;44825;53.200;6.448;2024-03-06T01:20:09;13.70;;;7.47;;
59040;SDS011;44825;53.200;6.448;2024-03-06T01:22:35;13.05;;;6.45;;
59040;SDS011;44825;53.200;6.448;2024-03-06T01:25:01;13.00;;;7.25;;
59040;SDS011;44825;53.200;6.448;2024-03-06T01:27:27;16.20;;;7.25;;
59040;SDS011;44825;53.200;6.448;2024-03-06T01:29:54;10.90;;;6.25;;
59040;SDS011;44825;53.200;6.448;2024-03-06T01:32:20;14.30;;;7.28;;
59040;SDS011;44825;53.200;6.448;2024-03-06T01:34:46;11.50;;;6.20;;
59040;SDS011;44825;53.200;6.448;2024-03-06T01:37:12;13.80;;;7.60;;
59040;SDS011;44825;53.200;6.448;2024-03-06T01:39:38;12.40;;;7.43;;
59040;SDS011;44825;53.200;6.448;2024-03-06T01:42:04;16.02;;;8.32;;
59040;SDS011;44825;53.200;6.448;2024-03-06T01:44:30;14.85;;;7.20;;
59040;SDS011;44825;53.200;6.448;2024-03-06T01:46:56;11.65;;;7.20;;
59040;SDS011;44825;53.200;6.448;2024-03-06T01:49:22;13.63;;;7.03;;
59040;SDS011;44825;53.200;6.448;2024-03-06T01:51:51;16.38;;;6.80;;
59040;SDS011;44825;53.200;6.448;2024-03-06T01:54:18;14.60;;;6.57;;
59040;SDS011;44825;53.200;6.448;2024-03-06T01:56:45;12.80;;;7.40;;
59040;SDS011;44825;53.200;6.448;2024-03-06T01:59:12;13.52;;;6.93;;
59040;SDS011;44825;53.200;6.448;2024-03-06T02:01:39;12.55;;;7.22;;
59040;SDS011;44825;53.200;6.448;2024-03-06T02:04:06;13.23;;;7.03;;
59040;SDS011;44825;53.200;6.448;2024-03-06T02:06:38;14.45;;;6.95;;
59040;SDS011;44825;53.200;6.448;2024-03-06T02:09:04;15.45;;;7.30;;
59040;SDS011;44825;53.200;6.448;2024-03-06T02:11:31;14.65;;;7.90;;
59040;SDS011;44825;53.200;6.448;2024-03-06T02:13:57;12.20;;;6.95;;
59040;SDS011;44825;53.200;6.448;2024-03-06T02:16:24;11.98;;;6.35;;
59040;SDS011;44825;53.200;6.448;2024-03-06T02:18:51;13.50;;;7.35;;
59040;SDS011;44825;53.200;6.448;2024-03-06T02:21:18;13.65;;;7.13;;
59040;SDS011;44825;53.200;6.448;2024-03-06T02:23:44;14.02;;;6.60;;
59040;SDS011;44825;53.200;6.448;2024-03-06T02:26:10;11.95;;;6.82;;
59040;SDS011;44825;53.200;6.448;2024-03-06T02:28:36;14.35;;;7.95;;
59040;SDS011;44825;53.200;6.448;2024-03-06T02:31:02;14.82;;;7.88;;
59040;SDS011;44825;53.200;6.448;2024-03-06T02:33:29;11.23;;;7.15;;
59040;SDS011;44825;53.200;6.448;2024-03-06T02:35:55;13.48;;;7.57;;
59040;SDS011;44825;53.200;6.448;2024-03-06T02:38:21;10.77;;;6.65;;
59040;SDS011;44825;53.200;6.448;2024-03-06T02:40:48;11.07;;;7.13;;
59040;SDS011;44825;53.200;6.448;2024-03-06T02:43:14;13.50;;;7.75;;
59040;SDS011;44825;53.200;6.448;2024-03-06T02:45:40;14.57;;;7.13;;
59040;SDS011;44825;53.200;6.448;2024-03-06T02:48:07;12.63;;;7.90;;
59040;SDS011;44825;53.200;6.448;2024-03-06T02:50:33;11.82;;;7.15;;
59040;SDS011;44825;53.200;6.448;2024-03-06T02:52:59;14.68;;;8.25;;
59040;SDS011;44825;53.200;6.448;2024-03-06T02:55:25;13.13;;;7.30;;
59040;SDS011;44825;53.200;6.448;2024-03-06T02:57:51;12.52;;;7.47;;
59040;SDS011;44825;53.200;6.448;2024-03-06T03:00:17;16.58;;;7.93;;
59040;SDS011;44825;53.200;6.448;2024-03-06T03:02:43;12.50;;;7.43;;
59040;SDS011;44825;53.200;6.448;2024-03-06T03:05:09;14.45;;;7.70;;
59040;SDS011;44825;53.200;6.448;2024-03-06T03:07:35;13.07;;;7.85;;
59040;SDS011;44825;53.200;6.448;2024-03-06T03:10:01;11.60;;;7.20;;
59040;SDS011;44825;53.200;6.448;2024-03-06T03:12:29;14.40;;;7.90;;
59040;SDS011;44825;53.200;6.448;2024-03-06T03:14:55;15.23;;;8.25;;
59040;SDS011;44825;53.200;6.448;2024-03-06T03:17:21;15.88;;;7.93;;
59040;SDS011;44825;53.200;6.448;2024-03-06T03:19:47;15.52;;;8.50;;
59040;SDS011;44825;53.200;6.448;2024-03-06T03:22:13;14.98;;;8.20;;
59040;SDS011;44825;53.200;6.448;2024-03-06T03:24:41;13.38;;;7.72;;
59040;SDS011;44825;53.200;6.448;2024-03-06T03:27:07;16.38;;;8.40;;
59040;SDS011;44825;53.200;6.448;2024-03-06T03:29:33;17.75;;;8.30;;
59040;SDS011;44825;53.200;6.448;2024-03-06T03:31:59;14.98;;;8.32;;
59040;SDS011;44825;53.200;6.448;2024-03-06T03:34:25;12.75;;;7.72;;
59040;SDS011;44825;53.200;6.448;2024-03-06T03:36:51;13.40;;;8.05;;
59040;SDS011;44825;53.200;6.448;2024-03-06T03:39:18;14.18;;;8.65;;
59040;SDS011;44825;53.200;6.448;2024-03-06T03:41:47;15.23;;;8.98;;
59040;SDS011;44825;53.200;6.448;2024-03-06T03:44:17;14.75;;;8.70;;
59040;SDS011;44825;53.200;6.448;2024-03-06T03:46:46;16.00;;;8.77;;
59040;SDS011;44825;53.200;6.448;2024-03-06T03:49:13;15.45;;;8.68;;
59040;SDS011;44825;53.200;6.448;2024-03-06T03:51:39;15.27;;;8.35;;
59040;SDS011;44825;53.200;6.448;2024-03-06T03:54:05;14.93;;;8.30;;
59040;SDS011;44825;53.200;6.448;2024-03-06T03:56:32;13.93;;;8.48;;
59040;SDS011;44825;53.200;6.448;2024-03-06T03:58:58;14.75;;;8.85;;
59040;SDS011;44825;53.200;6.448;2024-03-06T04:01:24;12.60;;;8.07;;
59040;SDS011;44825;53.200;6.448;2024-03-06T04:03:51;16.25;;;8.27;;
59040;SDS011;44825;53.200;6.448;2024-03-06T04:06:17;18.63;;;8.57;;
59040;SDS011;44825;53.200;6.448;2024-03-06T04:08:43;13.95;;;8.68;;
59040;SDS011;44825;53.200;6.448;2024-03-06T04:11:10;17.25;;;9.15;;
59040;SDS011;44825;53.200;6.448;2024-03-06T04:13:37;17.77;;;8.07;;
59040;SDS011;44825;53.200;6.448;2024-03-06T04:16:04;17.10;;;9.07;;
59040;SDS011;44825;53.200;6.448;2024-03-06T04:18:32;14.70;;;9.40;;
59040;SDS011;44825;53.200;6.448;2024-03-06T04:21:01;15.23;;;8.98;;
59040;SDS011;44825;53.200;6.448;2024-03-06T04:23:29;19.27;;;9.30;;
59040;SDS011;44825;53.200;6.448;2024-03-06T04:25:55;17.08;;;8.90;;
59040;SDS011;44825;53.200;6.448;2024-03-06T04:28:21;18.42;;;8.82;;
59040;SDS011;44825;53.200;6.448;2024-03-06T04:30:47;15.93;;;9.10;;
59040;SDS011;44825;53.200;6.448;2024-03-06T04:33:13;14.02;;;8.35;;
59040;SDS011;44825;53.200;6.448;2024-03-06T04:35:40;14.20;;;8.80;;
59040;SDS011;44825;53.200;6.448;2024-03-06T04:38:06;15.05;;;8.13;;
59040;SDS011;44825;53.200;6.448;2024-03-06T04:40:33;15.63;;;8.50;;
59040;SDS011;44825;53.200;6.448;2024-03-06T04:43:01;16.38;;;9.38;;
59040;SDS011;44825;53.200;6.448;2024-03-06T04:45:27;13.95;;;8.82;;
59040;SDS011;44825;53.200;6.448;2024-03-06T04:47:54;14.90;;;9.55;;
59040;SDS011;44825;53.200;6.448;2024-03-06T04:50:20;14.73;;;8.80;;
59040;SDS011;44825;53.200;6.448;2024-03-06T04:52:46;18.20;;;10.38;;
59040;SDS011;44825;53.200;6.448;2024-03-06T04:55:12;15.20;;;8.88;;
59040;SDS011;44825;53.200;6.448;2024-03-06T04:57:43;15.68;;;9.00;;
59040;SDS011;44825;53.200;6.448;2024-03-06T05:00:10;16.38;;;9.35;;
59040;SDS011;44825;53.200;6.448;2024-03-06T05:02:36;17.85;;;9.60;;
59040;SDS011;44825;53.200;6.448;2024-03-06T05:05:03;18.25;;;9.60;;
59040;SDS011;44825;53.200;6.448;2024-03-06T05:07:29;19.02;;;10.63;;
59040;SDS011;44825;53.200;6.448;2024-03-06T05:09:56;16.77;;;9.80;;
59040;SDS011;44825;53.200;6.448;2024-03-06T05:12:22;14.90;;;9.13;;
59040;SDS011;44825;53.200;6.448;2024-03-06T05:14:49;15.02;;;9.35;;
59040;SDS011;44825;53.200;6.448;2024-03-06T05:17:15;15.55;;;9.13;;
59040;SDS011;44825;53.200;6.448;2024-03-06T05:19:41;15.55;;;9.20;;
59040;SDS011;44825;53.200;6.448;2024-03-06T05:22:07;14.27;;;9.05;;
59040;SDS011;44825;53.200;6.448;2024-03-06T05:24:33;15.80;;;9.93;;
59040;SDS011;44825;53.200;6.448;2024-03-06T05:26:59;16.25;;;9.85;;
59040;SDS011;44825;53.200;6.448;2024-03-06T05:29:25;15.73;;;9.27;;
59040;SDS011;44825;53.200;6.448;2024-03-06T05:31:51;17.58;;;10.20;;
59040;SDS011;44825;53.200;6.448;2024-03-06T05:34:17;15.93;;;9.30;;
59040;SDS011;44825;53.200;6.448;2024-03-06T05:36:43;15.95;;;10.35;;
59040;SDS011;44825;53.200;6.448;2024-03-06T05:39:09;16.15;;;9.90;;
59040;SDS011;44825;53.200;6.448;2024-03-06T05:41:38;16.55;;;10.05;;
59040;SDS011;44825;53.200;6.448;2024-03-06T05:44:05;16.33;;;10.23;;
59040;SDS011;44825;53.200;6.448;2024-03-06T05:46:31;17.55;;;10.80;;
59040;SDS011;44825;53.200;6.448;2024-03-06T05:48:57;16.13;;;9.38;;
59040;SDS011;44825;53.200;6.448;2024-03-06T05:51:23;17.95;;;9.45;;
59040;SDS011;44825;53.200;6.448;2024-03-06T05:53:49;18.80;;;9.57;;
59040;SDS011;44825;53.200;6.448;2024-03-06T05:56:17;15.70;;;9.45;;
59040;SDS011;44825;53.200;6.448;2024-03-06T05:58:43;18.60;;;10.50;;
59040;SDS011;44825;53.200;6.448;2024-03-06T06:01:12;19.88;;;10.77;;
59040;SDS011;44825;53.200;6.448;2024-03-06T06:03:40;17.63;;;10.15;;
59040;SDS011;44825;53.200;6.448;2024-03-06T06:06:06;16.65;;;9.90;;
59040;SDS011;44825;53.200;6.448;2024-03-06T06:08:33;19.80;;;10.23;;
59040;SDS011;44825;53.200;6.448;2024-03-06T06:11:00;21.70;;;11.45;;
59040;SDS011;44825;53.200;6.448;2024-03-06T06:13:26;15.93;;;10.63;;
59040;SDS011;44825;53.200;6.448;2024-03-06T06:15:52;19.10;;;10.13;;
59040;SDS011;44825;53.200;6.448;2024-03-06T06:18:18;17.13;;;11.35;;
59040;SDS011;44825;53.200;6.448;2024-03-06T06:20:44;17.45;;;11.45;;
59040;SDS011;44825;53.200;6.448;2024-03-06T06:23:10;17.10;;;10.45;;
59040;SDS011;44825;53.200;6.448;2024-03-06T06:25:36;16.80;;;10.38;;
59040;SDS011;44825;53.200;6.448;2024-03-06T06:28:02;19.52;;;10.43;;
59040;SDS011;44825;53.200;6.448;2024-03-06T06:30:29;18.45;;;11.50;;
59040;SDS011;44825;53.200;6.448;2024-03-06T06:32:55;15.25;;;10.45;;
59040;SDS011;44825;53.200;6.448;2024-03-06T06:35:21;19.13;;;10.52;;
59040;SDS011;44825;53.200;6.448;2024-03-06T06:37:47;15.07;;;9.88;;
59040;SDS011;44825;53.200;6.448;2024-03-06T06:40:13;14.73;;;10.02;;
59040;SDS011;44825;53.200;6.448;2024-03-06T06:42:47;19.60;;;11.38;;
59040;SDS011;44825;53.200;6.448;2024-03-06T06:45:15;16.38;;;10.30;;
59040;SDS011;44825;53.200;6.448;2024-03-06T06:47:41;16.70;;;10.82;;
59040;SDS011;44825;53.200;6.448;2024-03-06T06:50:07;18.40;;;11.40;;
59040;SDS011;44825;53.200;6.448;2024-03-06T06:52:34;20.90;;;10.82;;
59040;SDS011;44825;53.200;6.448;2024-03-06T06:55:00;18.08;;;10.95;;
59040;SDS011;44825;53.200;6.448;2024-03-06T06:57:26;19.00;;;10.68;;
59040;SDS011;44825;53.200;6.448;2024-03-06T06:59:52;17.85;;;9.88;;
59040;SDS011;44825;53.200;6.448;2024-03-06T07:02:18;17.40;;;10.85;;
59040;SDS011;44825;53.200;6.448;2024-03-06T07:04:45;16.63;;;9.93;;
59040;SDS011;44825;53.200;6.448;2024-03-06T07:07:11;22.50;;;12.02;;
59040;SDS011;44825;53.200;6.448;2024-03-06T07:09:37;17.42;;;10.88;;
59040;SDS011;44825;53.200;6.448;2024-03-06T07:12:03;19.08;;;10.93;;
59040;SDS011;44825;53.200;6.448;2024-03-06T07:14:29;19.98;;;10.80;;
59040;SDS011;44825;53.200;6.448;2024-03-06T07:16:55;19.15;;;10.85;;
59040;SDS011;44825;53.200;6.448;2024-03-06T07:19:21;15.13;;;9.55;;
59040;SDS011;44825;53.200;6.448;2024-03-06T07:21:47;19.10;;;11.13;;
59040;SDS011;44825;53.200;6.448;2024-03-06T07:24:13;18.33;;;10.82;;
59040;SDS011;44825;53.200;6.448;2024-03-06T07:26:39;16.65;;;10.70;;
59040;SDS011;44825;53.200;6.448;2024-03-06T07:29:05;20.50;;;10.45;;
59040;SDS011;44825;53.200;6.448;2024-03-06T07:31:38;16.65;;;10.15;;
59040;SDS011;44825;53.200;6.448;2024-03-06T07:34:04;16.80;;;10.90;;
59040;SDS011;44825;53.200;6.448;2024-03-06T07:36:32;19.33;;;11.48;;
59040;SDS011;44825;53.200;6.448;2024-03-06T07:38:58;20.33;;;12.20;;
59040;SDS011;44825;53.200;6.448;2024-03-06T07:41:24;23.23;;;11.00;;
59040;SDS011;44825;53.200;6.448;2024-03-06T07:43:50;18.90;;;12.07;;
59040;SDS011;44825;53.200;6.448;2024-03-06T07:46:16;18.77;;;11.77;;
59040;SDS011;44825;53.200;6.448;2024-03-06T07:48:43;20.08;;;10.93;;
59040;SDS011;44825;53.200;6.448;2024-03-06T07:51:09;21.58;;;11.73;;
59040;SDS011;44825;53.200;6.448;2024-03-06T07:53:35;17.45;;;11.30;;
59040;SDS011;44825;53.200;6.448;2024-03-06T07:56:02;20.88;;;11.95;;
59040;SDS011;44825;53.200;6.448;2024-03-06T07:58:28;17.75;;;11.95;;
59040;SDS011;44825;53.200;6.448;2024-03-06T08:00:54;18.95;;;11.35;;
59040;SDS011;44825;53.200;6.448;2024-03-06T08:03:21;21.48;;;11.38;;
59040;SDS011;44825;53.200;6.448;2024-03-06T08:05:51;19.38;;;10.98;;
59040;SDS011;44825;53.200;6.448;2024-03-06T08:08:20;18.50;;;10.98;;
59040;SDS011;44825;53.200;6.448;2024-03-06T08:10:47;19.63;;;10.80;;
59040;SDS011;44825;53.200;6.448;2024-03-06T08:13:13;19.13;;;11.05;;
59040;SDS011;44825;53.200;6.448;2024-03-06T08:15:39;19.80;;;12.05;;
59040;SDS011;44825;53.200;6.448;2024-03-06T08:18:05;19.30;;;11.25;;
59040;SDS011;44825;53.200;6.448;2024-03-06T08:20:32;18.02;;;10.82;;
59040;SDS011;44825;53.200;6.448;2024-03-06T08:22:58;20.40;;;10.77;;
59040;SDS011;44825;53.200;6.448;2024-03-06T08:25:24;16.98;;;10.55;;
59040;SDS011;44825;53.200;6.448;2024-03-06T08:27:50;24.20;;;12.10;;
59040;SDS011;44825;53.200;6.448;2024-03-06T08:30:16;19.98;;;11.73;;
59040;SDS011;44825;53.200;6.448;2024-03-06T08:32:42;18.60;;;11.85;;
59040;SDS011;44825;53.200;6.448;2024-03-06T08:35:09;19.33;;;12.13;;
59040;SDS011;44825;53.200;6.448;2024-03-06T08:37:36;18.42;;;10.82;;
59040;SDS011;44825;53.200;6.448;2024-03-06T08:40:02;21.85;;;11.77;;
59040;SDS011;44825;53.200;6.448;2024-03-06T08:42:28;16.33;;;10.88;;
59040;SDS011;44825;53.200;6.448;2024-03-06T08:44:54;21.80;;;12.10;;
59040;SDS011;44825;53.200;6.448;2024-03-06T08:47:21;16.52;;;9.95;;
59040;SDS011;44825;53.200;6.448;2024-03-06T08:49:47;19.00;;;12.10;;
59040;SDS011;44825;53.200;6.448;2024-03-06T08:52:14;19.17;;;10.85;;
59040;SDS011;44825;53.200;6.448;2024-03-06T08:54:40;19.13;;;11.35;;
59040;SDS011;44825;53.200;6.448;2024-03-06T08:57:06;19.38;;;11.35;;
59040;SDS011;44825;53.200;6.448;2024-03-06T08:59:33;23.08;;;11.70;;
59040;SDS011;44825;53.200;6.448;2024-03-06T09:02:10;15.93;;;11.20;;
59040;SDS011;44825;53.200;6.448;2024-03-06T09:04:37;18.35;;;11.68;;
59040;SDS011;44825;53.200;6.448;2024-03-06T09:07:03;16.90;;;11.30;;
59040;SDS011;44825;53.200;6.448;2024-03-06T09:09:29;18.77;;;11.25;;
59040;SDS011;44825;53.200;6.448;2024-03-06T09:11:55;17.38;;;11.57;;
59040;SDS011;44825;53.200;6.448;2024-03-06T09:14:21;24.48;;;13.20;;
59040;SDS011;44825;53.200;6.448;2024-03-06T09:16:48;19.42;;;12.20;;
59040;SDS011;44825;53.200;6.448;2024-03-06T09:19:14;20.52;;;11.68;;
59040;SDS011;44825;53.200;6.448;2024-03-06T09:21:40;19.13;;;12.23;;
59040;SDS011;44825;53.200;6.448;2024-03-06T09:24:06;21.25;;;13.00;;
59040;SDS011;44825;53.200;6.448;2024-03-06T09:26:32;21.25;;;12.23;;
59040;SDS011;44825;53.200;6.448;2024-03-06T09:28:58;19.73;;;12.57;;
59040;SDS011;44825;53.200;6.448;2024-03-06T09:31:24;23.38;;;13.65;;
59040;SDS011;44825;53.200;6.448;2024-03-06T09:33:50;19.33;;;12.02;;
59040;SDS011;44825;53.200;6.448;2024-03-06T09:36:16;23.40;;;12.88;;
59040;SDS011;44825;53.200;6.448;2024-03-06T09:38:42;21.50;;;12.73;;
59040;SDS011;44825;53.200;6.448;2024-03-06T09:41:08;19.60;;;11.88;;
59040;SDS011;44825;53.200;6.448;2024-03-06T09:43:34;18.48;;;12.40;;
59040;SDS011;44825;53.200;6.448;2024-03-06T09:46:01;21.27;;;12.80;;
59040;SDS011;44825;53.200;6.448;2024-03-06T09:48:27;21.35;;;12.35;;
59040;SDS011;44825;53.200;6.448;2024-03-06T09:50:54;22.35;;;12.73;;
59040;SDS011;44825;53.200;6.448;2024-03-06T09:53:23;21.17;;;12.68;;
59040;SDS011;44825;53.200;6.448;2024-03-06T09:55:50;22.40;;;12.63;;
59040;SDS011;44825;53.200;6.448;2024-03-06T09:58:16;20.45;;;11.95;;
59040;SDS011;44825;53.200;6.448;2024-03-06T10:00:42;23.75;;;13.43;;
59040;SDS011;44825;53.200;6.448;2024-03-06T10:03:09;22.05;;;12.88;;
59040;SDS011;44825;53.200;6.448;2024-03-06T10:05:36;21.73;;;12.50;;
59040;SDS011;44825;53.200;6.448;2024-03-06T10:08:02;21.88;;;12.65;;
59040;SDS011;44825;53.200;6.448;2024-03-06T10:10:32;22.98;;;13.25;;
59040;SDS011;44825;53.200;6.448;2024-03-06T10:12:58;20.33;;;12.65;;
59040;SDS011;44825;53.200;6.448;2024-03-06T10:15:28;25.33;;;13.30;;
59040;SDS011;44825;53.200;6.448;2024-03-06T10:18:10;23.77;;;13.55;;
59040;SDS011;44825;53.200;6.448;2024-03-06T10:20:37;24.58;;;14.48;;
59040;SDS011;44825;53.200;6.448;2024-03-06T10:23:03;21.27;;;12.90;;
59040;SDS011;44825;53.200;6.448;2024-03-06T10:25:30;29.08;;;14.93;;
59040;SDS011;44825;53.200;6.448;2024-03-06T10:28:06;23.05;;;13.27;;
59040;SDS011;44825;53.200;6.448;2024-03-06T10:30:36;26.33;;;13.65;;
59040;SDS011;44825;53.200;6.448;2024-03-06T10:33:05;21.25;;;13.13;;
59040;SDS011;44825;53.200;6.448;2024-03-06T10:35:32;21.90;;;13.85;;
59040;SDS011;44825;53.200;6.448;2024-03-06T10:38:01;22.27;;;12.93;;
59040;SDS011;44825;53.200;6.448;2024-03-06T10:40:27;21.65;;;12.57;;
59040;SDS011;44825;53.200;6.448;2024-03-06T10:42:56;22.38;;;13.40;;
59040;SDS011;44825;53.200;6.448;2024-03-06T10:45:23;23.90;;;13.02;;
59040;SDS011;44825;53.200;6.448;2024-03-06T10:47:53;22.98;;;13.50;;
59040;SDS011;44825;53.200;6.448;2024-03-06T10:50:20;23.60;;;14.13;;
59040;SDS011;44825;53.200;6.448;2024-03-06T10:52:46;21.90;;;13.50;;
59040;SDS011;44825;53.200;6.448;2024-03-06T10:55:13;23.60;;;13.80;;
59040;SDS011;44825;53.200;6.448;2024-03-06T10:57:39;25.77;;;14.52;;
59040;SDS011;44825;53.200;6.448;2024-03-06T11:00:07;22.73;;;13.63;;
59040;SDS011;44825;53.200;6.448;2024-03-06T11:02:33;22.85;;;14.20;;
59040;SDS011;44825;53.200;6.448;2024-03-06T11:05:00;25.38;;;14.68;;
59040;SDS011;44825;53.200;6.448;2024-03-06T11:07:30;26.27;;;14.50;;
59040;SDS011;44825;53.200;6.448;2024-03-06T11:09:58;27.30;;;14.57;;
59040;SDS011;44825;53.200;6.448;2024-03-06T11:12:38;21.65;;;14.00;;
59040;SDS011;44825;53.200;6.448;2024-03-06T11:15:37;23.50;;;14.82;;
59040;SDS011;44825;53.200;6.448;2024-03-06T11:17:57;24.23;;;13.18;;
59040;SDS011;44825;53.200;6.448;2024-03-06T11:20:23;21.98;;;13.77;;
59040;SDS011;44825;53.200;6.448;2024-03-06T11:28:09;22.55;;;13.27;;
59040;SDS011;44825;53.200;6.448;2024-03-06T11:30:44;24.98;;;15.32;;
59040;SDS011;44825;53.200;6.448;2024-03-06T11:33:11;25.70;;;15.82;;
59040;SDS011;44825;53.200;6.448;2024-03-06T11:35:38;28.23;;;14.98;;
59040;SDS011;44825;53.200;6.448;2024-03-06T11:38:06;24.88;;;14.60;;
59040;SDS011;44825;53.200;6.448;2024-03-06T11:40:32;22.13;;;14.98;;
59040;SDS011;44825;53.200;6.448;2024-03-06T11:43:21;29.73;;;15.93;;
59040;SDS011;44825;53.200;6.448;2024-03-06T11:45:44;24.90;;;15.30;;
59040;SDS011;44825;53.200;6.448;2024-03-06T11:48:11;24.30;;;15.07;;
59040;SDS011;44825;53.200;6.448;2024-03-06T11:50:44;29.85;;;15.60;;
59040;SDS011;44825;53.200;6.448;2024-03-06T11:53:11;32.08;;;16.02;;
59040;SDS011;44825;53.200;6.448;2024-03-06T11:55:37;25.50;;;16.48;;
59040;SDS011;44825;53.200;6.448;2024-03-06T11:58:04;24.52;;;15.27;;
59040;SDS011;44825;53.200;6.448;2024-03-06T12:00:32;23.63;;;15.02;;
59040;SDS011;44825;53.200;6.448;2024-03-06T12:02:58;23.63;;;15.40;;
59040;SDS011;44825;53.200;6.448;2024-03-06T12:05:24;26.85;;;16.95;;
59040;SDS011;44825;53.200;6.448;2024-03-06T12:07:52;27.08;;;15.73;;
59040;SDS011;44825;53.200;6.448;2024-03-06T12:10:19;28.27;;;16.10;;
59040;SDS011;44825;53.200;6.448;2024-03-06T12:12:45;27.85;;;16.17;;
59040;SDS011;44825;53.200;6.448;2024-03-06T12:15:12;33.22;;;17.65;;
59040;SDS011;44825;53.200;6.448;2024-03-06T12:17:46;29.80;;;16.80;;
59040;SDS011;44825;53.200;6.448;2024-03-06T12:20:12;29.60;;;17.45;;
59040;SDS011;44825;53.200;6.448;2024-03-06T12:22:50;28.58;;;16.50;;
59040;SDS011;44825;53.200;6.448;2024-03-06T12:25:20;31.15;;;17.35;;
59040;SDS011;44825;53.200;6.448;2024-03-06T12:27:47;27.90;;;18.45;;
59040;SDS011;44825;53.200;6.448;2024-03-06T12:30:16;28.63;;;16.85;;
59040;SDS011;44825;53.200;6.448;2024-03-06T12:32:43;31.20;;;17.67;;
59040;SDS011;44825;53.200;6.448;2024-03-06T12:35:09;28.63;;;17.00;;
59040;SDS011;44825;53.200;6.448;2024-03-06T12:37:35;27.20;;;17.23;;
59040;SDS011;44825;53.200;6.448;2024-03-06T12:40:05;24.75;;;16.42;;
59040;SDS011;44825;53.200;6.448;2024-03-06T12:42:38;25.23;;;15.88;;
59040;SDS011;44825;53.200;6.448;2024-03-06T12:45:04;24.73;;;16.50;;
59040;SDS011;44825;53.200;6.448;2024-03-06T12:47:32;28.08;;;16.70;;
59040;SDS011;44825;53.200;6.448;2024-03-06T12:49:58;34.95;;;17.55;;
59040;SDS011;44825;53.200;6.448;2024-03-06T12:52:24;30.20;;;17.35;;
59040;SDS011;44825;53.200;6.448;2024-03-06T12:54:50;27.13;;;17.60;;
59040;SDS011;44825;53.200;6.448;2024-03-06T12:57:16;25.73;;;16.88;;
59040;SDS011;44825;53.200;6.448;2024-03-06T12:59:42;32.55;;;17.98;;
59040;SDS011;44825;53.200;6.448;2024-03-06T13:02:09;28.80;;;18.30;;
59040;SDS011;44825;53.200;6.448;2024-03-06T13:04:35;28.42;;;16.75;;
59040;SDS011;44825;53.200;6.448;2024-03-06T13:07:01;28.08;;;16.88;;
59040;SDS011;44825;53.200;6.448;2024-03-06T13:09:27;31.73;;;18.40;;
59040;SDS011;44825;53.200;6.448;2024-03-06T13:11:53;30.40;;;18.67;;
59040;SDS011;44825;53.200;6.448;2024-03-06T13:14:19;30.80;;;18.10;;
59040;SDS011;44825;53.200;6.448;2024-03-06T13:16:45;29.85;;;18.60;;
59040;SDS011;44825;53.200;6.448;2024-03-06T13:19:11;29.80;;;18.20;;
59040;SDS011;44825;53.200;6.448;2024-03-06T13:21:38;30.52;;;19.23;;
59040;SDS011;44825;53.200;6.448;2024-03-06T13:24:04;27.35;;;17.58;;
59040;SDS011;44825;53.200;6.448;2024-03-06T13:26:30;25.63;;;17.08;;
59040;SDS011;44825;53.200;6.448;2024-03-06T13:28:56;26.15;;;18.17;;
59040;SDS011;44825;53.200;6.448;2024-03-06T13:31:22;25.52;;;18.60;;
59040;SDS011;44825;53.200;6.448;2024-03-06T13:33:48;29.08;;;18.15;;
59040;SDS011;44825;53.200;6.448;2024-03-06T13:36:14;27.20;;;17.95;;
59040;SDS011;44825;53.200;6.448;2024-03-06T13:38:40;27.35;;;18.65;;
59040;SDS011;44825;53.200;6.448;2024-03-06T13:41:06;28.05;;;19.08;;
59040;SDS011;44825;53.200;6.448;2024-03-06T13:43:32;27.10;;;18.05;;
59040;SDS011;44825;53.200;6.448;2024-03-06T13:45:58;28.33;;;18.55;;
59040;SDS011;44825;53.200;6.448;2024-03-06T13:48:24;27.13;;;18.90;;
59040;SDS011;44825;53.200;6.448;2024-03-06T13:50:50;25.98;;;17.08;;
59040;SDS011;44825;53.200;6.448;2024-03-06T13:53:16;28.98;;;18.92;;
59040;SDS011;44825;53.200;6.448;2024-03-06T13:55:43;28.38;;;19.15;;
59040;SDS011;44825;53.200;6.448;2024-03-06T13:58:09;29.23;;;19.50;;
59040;SDS011;44825;53.200;6.448;2024-03-06T14:00:35;27.88;;;18.45;;
59040;SDS011;44825;53.200;6.448;2024-03-06T14:03:01;25.73;;;17.42;;
59040;SDS011;44825;53.200;6.448;2024-03-06T14:05:27;26.27;;;18.05;;
59040;SDS011;44825;53.200;6.448;2024-03-06T14:07:53;28.05;;;18.95;;
59040;SDS011;44825;53.200;6.448;2024-03-06T14:10:20;29.05;;;18.90;;
59040;SDS011;44825;53.200;6.448;2024-03-06T14:12:48;26.92;;;17.73;;
59040;SDS011;44825;53.200;6.448;2024-03-06T14:15:20;25.27;;;18.00;;
59040;SDS011;44825;53.200;6.448;2024-03-06T14:17:47;27.73;;;17.55;;
59040;SDS011;44825;53.200;6.448;2024-03-06T14:20:13;27.40;;;18.08;;
59040;SDS011;44825;53.200;6.448;2024-03-06T14:22:43;26.13;;;18.30;;
59040;SDS011;44825;53.200;6.448;2024-03-06T14:25:09;27.67;;;17.95;;
59040;SDS011;44825;53.200;6.448;2024-03-06T14:27:35;24.13;;;16.58;;
59040;SDS011;44825;53.200;6.448;2024-03-06T14:30:02;26.83;;;17.35;;